sensor_id;sensor_type;location;lat;lon;timestamp;P1;durP1;ratioP1;P2;durP2;ratioP2
7931;SDS011;4011;49.424;10.894;2023-12-22T00:01:07;1.65;;;0.90;;
7931;SDS011;4011;49.424;10.894;2023-12-22T00:06:30;1.85;;;0.90;;
7931;SDS011;4011;49.424;10.894;2023-12-22T00:11:52;1.20;;;0.73;;
7931;SDS011;4011;49.424;10.894;2023-12-22T00:17:13;2.45;;;1.05;;
7931;SDS011;4011;49.424;10.894;2023-12-22T00:22:36;1.35;;;0.70;;
7931;SDS011;4011;49.424;10.894;2023-12-22T00:27:57;1.30;;;0.90;;
7931;SDS011;4011;49.424;10.894;2023-12-22T00:33:19;2.17;;;1.20;;
7931;SDS011;4011;49.424;10.894;2023-12-22T00:38:41;1.52;;;1.00;;
7931;SDS011;4011;49.424;10.894;2023-12-22T00:44:03;1.98;;;0.82;;
7931;SDS011;4011;49.424;10.894;2023-12-22T00:49:24;1.42;;;0.85;;
7931;SDS011;4011;49.424;10.894;2023-12-22T00:54:47;2.92;;;1.00;;
7931;SDS011;4011;49.424;10.894;2023-12-22T01:00:09;1.48;;;0.77;;
7931;SDS011;4011;49.424;10.894;2023-12-22T01:05:32;2.95;;;1.08;;
7931;SDS011;4011;49.424;10.894;2023-12-22T01:10:55;3.55;;;1.10;;
7931;SDS011;4011;49.424;10.894;2023-12-22T01:16:16;1.65;;;0.90;;
7931;SDS011;4011;49.424;10.894;2023-12-22T01:21:41;3.53;;;1.20;;
7931;SDS011;4011;49.424;10.894;2023-12-22T01:27:04;2.10;;;1.00;;
7931;SDS011;4011;49.424;10.894;2023-12-22T01:32:26;2.08;;;0.95;;
7931;SDS011;4011;49.424;10.894;2023-12-22T01:37:53;2.40;;;1.02;;
7931;SDS011;4011;49.424;10.894;2023-12-22T01:43:16;2.53;;;1.20;;
7931;SDS011;4011;49.424;10.894;2023-12-22T01:48:41;2.35;;;1.17;;
7931;SDS011;4011;49.424;10.894;2023-12-22T01:54:03;2.47;;;1.00;;
7931;SDS011;4011;49.424;10.894;2023-12-22T01:59:27;2.70;;;1.08;;
7931;SDS011;4011;49.424;10.894;2023-12-22T02:04:50;2.90;;;0.93;;
7931;SDS011;4011;49.424;10.894;2023-12-22T02:10:12;1.92;;;1.10;;
7931;SDS011;4011;49.424;10.894;2023-12-22T02:15:35;1.52;;;0.80;;
7931;SDS011;4011;49.424;10.894;2023-12-22T02:20:56;2.25;;;0.80;;
7931;SDS011;4011;49.424;10.894;2023-12-22T02:26:21;1.95;;;0.90;;
7931;SDS011;4011;49.424;10.894;2023-12-22T02:31:44;1.80;;;0.80;;
7931;SDS011;4011;49.424;10.894;2023-12-22T02:37:10;2.85;;;1.02;;
7931;SDS011;4011;49.424;10.894;2023-12-22T02:42:33;1.15;;;0.70;;
7931;SDS011;4011;49.424;10.894;2023-12-22T02:47:55;2.35;;;1.15;;
7931;SDS011;4011;49.424;10.894;2023-12-22T02:53:16;1.83;;;0.90;;
7931;SDS011;4011;49.424;10.894;2023-12-22T02:58:39;1.48;;;0.75;;
7931;SDS011;4011;49.424;10.894;2023-12-22T03:04:01;1.52;;;0.60;;
7931;SDS011;4011;49.424;10.894;2023-12-22T03:09:22;3.42;;;1.10;;
7931;SDS011;4011;49.424;10.894;2023-12-22T03:14:45;0.82;;;0.60;;
7931;SDS011;4011;49.424;10.894;2023-12-22T03:20:06;1.98;;;1.00;;
7931;SDS011;4011;49.424;10.894;2023-12-22T03:25:28;1.10;;;0.80;;
7931;SDS011;4011;49.424;10.894;2023-12-22T03:30:51;0.98;;;0.63;;
7931;SDS011;4011;49.424;10.894;2023-12-22T03:36:12;1.65;;;0.95;;
7931;SDS011;4011;49.424;10.894;2023-12-22T03:41:33;1.40;;;0.68;;
7931;SDS011;4011;49.424;10.894;2023-12-22T03:46:56;1.35;;;0.75;;
7931;SDS011;4011;49.424;10.894;2023-12-22T03:52:17;1.35;;;0.60;;
7931;SDS011;4011;49.424;10.894;2023-12-22T03:57:39;0.30;;;0.30;;
7931;SDS011;4011;49.424;10.894;2023-12-22T04:03:02;0.60;;;0.40;;
7931;SDS011;4011;49.424;10.894;2023-12-22T04:08:23;1.33;;;0.77;;
7931;SDS011;4011;49.424;10.894;2023-12-22T04:13:46;1.27;;;0.60;;
7931;SDS011;4011;49.424;10.894;2023-12-22T04:19:08;1.58;;;0.60;;
7931;SDS011;4011;49.424;10.894;2023-12-22T04:24:30;2.13;;;0.80;;
7931;SDS011;4011;49.424;10.894;2023-12-22T04:29:51;1.13;;;0.63;;
7931;SDS011;4011;49.424;10.894;2023-12-22T04:35:14;0.73;;;0.40;;
7931;SDS011;4011;49.424;10.894;2023-12-22T04:40:35;1.38;;;0.73;;
7931;SDS011;4011;49.424;10.894;2023-12-22T04:45:57;0.73;;;0.60;;
7931;SDS011;4011;49.424;10.894;2023-12-22T04:51:20;1.27;;;0.60;;
7931;SDS011;4011;49.424;10.894;2023-12-22T04:56:41;0.80;;;0.57;;
7931;SDS011;4011;49.424;10.894;2023-12-22T05:02:03;0.63;;;0.55;;
7931;SDS011;4011;49.424;10.894;2023-12-22T05:07:26;0.98;;;0.40;;
7931;SDS011;4011;49.424;10.894;2023-12-22T05:12:47;0.73;;;0.43;;
7931;SDS011;4011;49.424;10.894;2023-12-22T05:18:10;1.25;;;0.55;;
7931;SDS011;4011;49.424;10.894;2023-12-22T05:23:33;0.93;;;0.68;;
7931;SDS011;4011;49.424;10.894;2023-12-22T05:28:55;0.85;;;0.47;;
7931;SDS011;4011;49.424;10.894;2023-12-22T05:34:16;1.05;;;0.55;;
7931;SDS011;4011;49.424;10.894;2023-12-22T05:39:40;3.40;;;1.10;;
7931;SDS011;4011;49.424;10.894;2023-12-22T05:45:01;2.90;;;0.90;;
7931;SDS011;4011;49.424;10.894;2023-12-22T05:50:23;1.42;;;0.70;;
7931;SDS011;4011;49.424;10.894;2023-12-22T05:55:50;1.35;;;0.65;;
7931;SDS011;4011;49.424;10.894;2023-12-22T06:01:14;3.97;;;0.73;;
7931;SDS011;4011;49.424;10.894;2023-12-22T06:06:36;1.08;;;0.52;;
7931;SDS011;4011;49.424;10.894;2023-12-22T06:11:59;1.88;;;0.80;;
7931;SDS011;4011;49.424;10.894;2023-12-22T06:17:21;2.20;;;0.80;;
7931;SDS011;4011;49.424;10.894;2023-12-22T06:22:43;1.33;;;0.70;;
7931;SDS011;4011;49.424;10.894;2023-12-22T06:28:05;1.67;;;0.90;;
7931;SDS011;4011;49.424;10.894;2023-12-22T06:33:27;1.65;;;0.80;;
7931;SDS011;4011;49.424;10.894;2023-12-22T06:38:49;1.25;;;0.80;;
7931;SDS011;4011;49.424;10.894;2023-12-22T06:44:13;1.65;;;1.00;;
7931;SDS011;4011;49.424;10.894;2023-12-22T06:49:35;1.33;;;0.85;;
7931;SDS011;4011;49.424;10.894;2023-12-22T06:54:56;2.42;;;1.20;;
7931;SDS011;4011;49.424;10.894;2023-12-22T07:00:19;1.90;;;1.00;;
7931;SDS011;4011;49.424;10.894;2023-12-22T07:05:41;2.03;;;1.10;;
7931;SDS011;4011;49.424;10.894;2023-12-22T07:11:02;2.17;;;1.15;;
7931;SDS011;4011;49.424;10.894;2023-12-22T07:16:25;1.25;;;0.95;;
7931;SDS011;4011;49.424;10.894;2023-12-22T07:21:46;1.30;;;0.90;;
7931;SDS011;4011;49.424;10.894;2023-12-22T07:27:08;1.20;;;0.75;;
7931;SDS011;4011;49.424;10.894;2023-12-22T07:32:30;1.90;;;1.10;;
7931;SDS011;4011;49.424;10.894;2023-12-22T07:37:53;1.45;;;1.10;;
7931;SDS011;4011;49.424;10.894;2023-12-22T07:43:14;2.15;;;1.00;;
7931;SDS011;4011;49.424;10.894;2023-12-22T07:48:37;1.42;;;0.88;;
7931;SDS011;4011;49.424;10.894;2023-12-22T07:53:59;1.52;;;1.10;;
7931;SDS011;4011;49.424;10.894;2023-12-22T07:59:20;2.03;;;0.90;;
7931;SDS011;4011;49.424;10.894;2023-12-22T08:04:43;1.85;;;1.10;;
7931;SDS011;4011;49.424;10.894;2023-12-22T08:10:05;1.25;;;1.00;;
7931;SDS011;4011;49.424;10.894;2023-12-22T08:15:27;0.95;;;0.75;;
7931;SDS011;4011;49.424;10.894;2023-12-22T08:20:49;1.40;;;0.93;;
7931;SDS011;4011;49.424;10.894;2023-12-22T08:26:11;1.85;;;1.05;;
7931;SDS011;4011;49.424;10.894;2023-12-22T08:31:35;1.27;;;0.98;;
7931;SDS011;4011;49.424;10.894;2023-12-22T08:36:58;2.45;;;0.93;;
7931;SDS011;4011;49.424;10.894;2023-12-22T08:42:20;2.30;;;1.05;;
7931;SDS011;4011;49.424;10.894;2023-12-22T08:47:42;1.45;;;0.80;;
7931;SDS011;4011;49.424;10.894;2023-12-22T08:53:05;2.50;;;1.02;;
7931;SDS011;4011;49.424;10.894;2023-12-22T08:58:27;1.58;;;0.75;;
7931;SDS011;4011;49.424;10.894;2023-12-22T09:03:48;4.30;;;1.20;;
7931;SDS011;4011;49.424;10.894;2023-12-22T09:09:11;1.95;;;1.10;;
7931;SDS011;4011;49.424;10.894;2023-12-22T09:14:33;2.53;;;1.10;;
7931;SDS011;4011;49.424;10.894;2023-12-22T09:19:55;2.60;;;1.20;;
7931;SDS011;4011;49.424;10.894;2023-12-22T09:25:18;2.55;;;0.98;;
7931;SDS011;4011;49.424;10.894;2023-12-22T09:30:39;3.25;;;1.10;;
7931;SDS011;4011;49.424;10.894;2023-12-22T09:36:01;2.33;;;1.00;;
7931;SDS011;4011;49.424;10.894;2023-12-22T09:41:25;3.38;;;1.30;;
7931;SDS011;4011;49.424;10.894;2023-12-22T09:46:46;2.60;;;1.30;;
7931;SDS011;4011;49.424;10.894;2023-12-22T09:52:08;4.63;;;1.40;;
7931;SDS011;4011;49.424;10.894;2023-12-22T09:57:32;2.72;;;1.38;;
7931;SDS011;4011;49.424;10.894;2023-12-22T10:02:54;2.15;;;1.20;;
7931;SDS011;4011;49.424;10.894;2023-12-22T10:08:15;2.15;;;1.20;;
7931;SDS011;4011;49.424;10.894;2023-12-22T10:13:41;3.97;;;1.42;;
7931;SDS011;4011;49.424;10.894;2023-12-22T10:19:03;2.72;;;1.33;;
7931;SDS011;4011;49.424;10.894;2023-12-22T10:24:37;2.63;;;1.10;;
7931;SDS011;4011;49.424;10.894;2023-12-22T10:30:00;3.20;;;1.20;;
7931;SDS011;4011;49.424;10.894;2023-12-22T10:35:21;2.83;;;1.30;;
7931;SDS011;4011;49.424;10.894;2023-12-22T10:40:43;2.65;;;1.17;;
7931;SDS011;4011;49.424;10.894;2023-12-22T10:46:08;3.40;;;1.20;;
7931;SDS011;4011;49.424;10.894;2023-12-22T10:51:31;2.90;;;1.50;;
7931;SDS011;4011;49.424;10.894;2023-12-22T10:56:54;2.50;;;1.20;;
7931;SDS011;4011;49.424;10.894;2023-12-22T11:02:18;2.38;;;1.20;;
7931;SDS011;4011;49.424;10.894;2023-12-22T11:07:39;2.75;;;1.30;;
7931;SDS011;4011;49.424;10.894;2023-12-22T11:13:02;3.03;;;1.23;;
7931;SDS011;4011;49.424;10.894;2023-12-22T11:18:26;1.92;;;1.00;;
7931;SDS011;4011;49.424;10.894;2023-12-22T11:23:49;3.45;;;1.33;;
7931;SDS011;4011;49.424;10.894;2023-12-22T11:29:10;2.42;;;1.10;;
7931;SDS011;4011;49.424;10.894;2023-12-22T11:34:34;3.00;;;1.20;;
7931;SDS011;4011;49.424;10.894;2023-12-22T11:39:57;2.72;;;1.05;;
7931;SDS011;4011;49.424;10.894;2023-12-22T11:45:18;2.72;;;1.20;;
7931;SDS011;4011;49.424;10.894;2023-12-22T11:50:41;2.72;;;1.40;;
7931;SDS011;4011;49.424;10.894;2023-12-22T11:56:03;3.38;;;1.80;;
7931;SDS011;4011;49.424;10.894;2023-12-22T12:01:25;4.57;;;3.00;;
7931;SDS011;4011;49.424;10.894;2023-12-22T12:06:53;4.72;;;3.00;;
7931;SDS011;4011;49.424;10.894;2023-12-22T12:12:14;4.72;;;2.55;;
7931;SDS011;4011;49.424;10.894;2023-12-22T12:17:37;4.18;;;2.63;;
7931;SDS011;4011;49.424;10.894;2023-12-22T12:23:01;3.90;;;2.45;;
7931;SDS011;4011;49.424;10.894;2023-12-22T12:28:24;5.82;;;2.63;;
7931;SDS011;4011;49.424;10.894;2023-12-22T12:33:47;3.95;;;2.15;;
7931;SDS011;4011;49.424;10.894;2023-12-22T12:39:12;4.15;;;2.20;;
7931;SDS011;4011;49.424;10.894;2023-12-22T12:44:35;4.72;;;2.45;;
7931;SDS011;4011;49.424;10.894;2023-12-22T12:49:57;4.03;;;2.42;;
7931;SDS011;4011;49.424;10.894;2023-12-22T12:55:21;4.95;;;2.30;;
7931;SDS011;4011;49.424;10.894;2023-12-22T13:00:42;5.00;;;2.30;;
7931;SDS011;4011;49.424;10.894;2023-12-22T13:06:07;3.85;;;2.20;;
7931;SDS011;4011;49.424;10.894;2023-12-22T13:11:30;5.82;;;2.80;;
7931;SDS011;4011;49.424;10.894;2023-12-22T13:16:53;4.47;;;2.33;;
7931;SDS011;4011;49.424;10.894;2023-12-22T13:22:16;4.35;;;2.63;;
7931;SDS011;4011;49.424;10.894;2023-12-22T13:27:45;6.90;;;2.50;;
7931;SDS011;4011;49.424;10.894;2023-12-22T13:33:07;5.47;;;2.30;;
7931;SDS011;4011;49.424;10.894;2023-12-22T13:38:29;4.20;;;2.10;;
7931;SDS011;4011;49.424;10.894;2023-12-22T13:43:52;4.32;;;2.10;;
7931;SDS011;4011;49.424;10.894;2023-12-22T13:49:16;6.50;;;1.95;;
7931;SDS011;4011;49.424;10.894;2023-12-22T13:54:38;3.30;;;1.85;;
7931;SDS011;4011;49.424;10.894;2023-12-22T14:00:00;4.07;;;1.85;;
7931;SDS011;4011;49.424;10.894;2023-12-22T14:05:24;4.10;;;1.70;;
7931;SDS011;4011;49.424;10.894;2023-12-22T14:10:48;3.47;;;1.85;;
7931;SDS011;4011;49.424;10.894;2023-12-22T14:16:11;4.57;;;1.58;;
7931;SDS011;4011;49.424;10.894;2023-12-22T14:21:32;3.88;;;1.85;;
7931;SDS011;4011;49.424;10.894;2023-12-22T14:26:54;3.35;;;1.63;;
7931;SDS011;4011;49.424;10.894;2023-12-22T14:32:17;3.05;;;1.50;;
7931;SDS011;4011;49.424;10.894;2023-12-22T14:37:40;2.78;;;1.50;;
7931;SDS011;4011;49.424;10.894;2023-12-22T14:43:03;3.03;;;1.40;;
7931;SDS011;4011;49.424;10.894;2023-12-22T14:48:26;3.35;;;1.55;;
7931;SDS011;4011;49.424;10.894;2023-12-22T14:53:47;2.90;;;1.45;;
7931;SDS011;4011;49.424;10.894;2023-12-22T14:59:09;3.67;;;1.60;;
7931;SDS011;4011;49.424;10.894;2023-12-22T15:04:32;3.20;;;1.40;;
7931;SDS011;4011;49.424;10.894;2023-12-22T15:09:54;2.10;;;1.50;;
7931;SDS011;4011;49.424;10.894;2023-12-22T15:15:16;2.85;;;1.33;;
7931;SDS011;4011;49.424;10.894;2023-12-22T15:20:39;3.47;;;1.30;;
7931;SDS011;4011;49.424;10.894;2023-12-22T15:26:00;2.25;;;1.30;;
7931;SDS011;4011;49.424;10.894;2023-12-22T15:31:22;3.17;;;1.40;;
7931;SDS011;4011;49.424;10.894;2023-12-22T15:36:46;3.85;;;1.30;;
7931;SDS011;4011;49.424;10.894;2023-12-22T15:42:07;1.50;;;1.10;;
7931;SDS011;4011;49.424;10.894;2023-12-22T15:47:30;3.35;;;1.45;;
7931;SDS011;4011;49.424;10.894;2023-12-22T15:52:52;2.33;;;1.17;;
7931;SDS011;4011;49.424;10.894;2023-12-22T15:58:14;2.78;;;1.17;;
7931;SDS011;4011;49.424;10.894;2023-12-22T16:03:37;2.05;;;1.20;;
7931;SDS011;4011;49.424;10.894;2023-12-22T16:09:00;2.88;;;1.48;;
7931;SDS011;4011;49.424;10.894;2023-12-22T16:14:22;2.67;;;1.30;;
7931;SDS011;4011;49.424;10.894;2023-12-22T16:19:43;1.88;;;1.13;;
7931;SDS011;4011;49.424;10.894;2023-12-22T16:25:08;1.75;;;1.20;;
7931;SDS011;4011;49.424;10.894;2023-12-22T16:30:29;2.53;;;1.20;;
7931;SDS011;4011;49.424;10.894;2023-12-22T16:35:50;1.98;;;1.20;;
7931;SDS011;4011;49.424;10.894;2023-12-22T16:41:13;2.97;;;1.40;;
7931;SDS011;4011;49.424;10.894;2023-12-22T16:46:36;2.22;;;1.15;;
7931;SDS011;4011;49.424;10.894;2023-12-22T16:51:57;1.92;;;1.02;;
7931;SDS011;4011;49.424;10.894;2023-12-22T16:57:20;2.70;;;1.30;;
7931;SDS011;4011;49.424;10.894;2023-12-22T17:02:42;1.83;;;1.10;;
7931;SDS011;4011;49.424;10.894;2023-12-22T17:08:04;5.18;;;1.65;;
7931;SDS011;4011;49.424;10.894;2023-12-22T17:13:26;7.88;;;3.88;;
7931;SDS011;4011;49.424;10.894;2023-12-22T17:18:48;9.73;;;4.82;;
7931;SDS011;4011;49.424;10.894;2023-12-22T17:24:09;15.23;;;7.93;;
7931;SDS011;4011;49.424;10.894;2023-12-22T17:29:33;18.65;;;9.90;;
7931;SDS011;4011;49.424;10.894;2023-12-22T17:34:54;22.00;;;10.77;;
7931;SDS011;4011;49.424;10.894;2023-12-22T17:40:16;23.40;;;11.70;;
7931;SDS011;4011;49.424;10.894;2023-12-22T17:45:39;19.67;;;10.73;;
7931;SDS011;4011;49.424;10.894;2023-12-22T17:51:01;20.02;;;10.75;;
7931;SDS011;4011;49.424;10.894;2023-12-22T17:56:23;17.23;;;9.48;;
7931;SDS011;4011;49.424;10.894;2023-12-22T18:01:47;18.27;;;9.35;;
7931;SDS011;4011;49.424;10.894;2023-12-22T18:07:10;16.50;;;9.27;;
7931;SDS011;4011;49.424;10.894;2023-12-22T18:12:31;14.50;;;7.68;;
7931;SDS011;4011;49.424;10.894;2023-12-22T18:17:56;16.27;;;8.10;;
7931;SDS011;4011;49.424;10.894;2023-12-22T18:23:19;15.40;;;7.95;;
7931;SDS011;4011;49.424;10.894;2023-12-22T18:28:41;12.77;;;6.75;;
7931;SDS011;4011;49.424;10.894;2023-12-22T18:34:04;12.98;;;6.43;;
7931;SDS011;4011;49.424;10.894;2023-12-22T18:39:27;11.77;;;6.68;;
7931;SDS011;4011;49.424;10.894;2023-12-22T18:44:49;10.85;;;6.07;;
7931;SDS011;4011;49.424;10.894;2023-12-22T18:50:20;12.38;;;5.35;;
7931;SDS011;4011;49.424;10.894;2023-12-22T18:55:42;14.10;;;5.90;;
7931;SDS011;4011;49.424;10.894;2023-12-22T19:01:03;9.00;;;4.80;;
7931;SDS011;4011;49.424;10.894;2023-12-22T19:06:26;9.77;;;5.55;;
7931;SDS011;4011;49.424;10.894;2023-12-22T19:11:49;11.93;;;5.47;;
7931;SDS011;4011;49.424;10.894;2023-12-22T19:17:10;10.02;;;5.60;;
7931;SDS011;4011;49.424;10.894;2023-12-22T19:22:35;9.00;;;4.80;;
7931;SDS011;4011;49.424;10.894;2023-12-22T19:27:56;9.32;;;4.85;;
7931;SDS011;4011;49.424;10.894;2023-12-22T19:33:17;8.73;;;4.40;;
7931;SDS011;4011;49.424;10.894;2023-12-22T19:38:40;20.15;;;6.93;;
7931;SDS011;4011;49.424;10.894;2023-12-22T19:44:02;14.40;;;5.70;;
7931;SDS011;4011;49.424;10.894;2023-12-22T19:49:23;13.20;;;5.20;;
7931;SDS011;4011;49.424;10.894;2023-12-22T19:54:46;10.32;;;4.78;;
7931;SDS011;4011;49.424;10.894;2023-12-22T20:00:08;8.77;;;4.68;;
7931;SDS011;4011;49.424;10.894;2023-12-22T20:05:32;10.73;;;4.35;;
7931;SDS011;4011;49.424;10.894;2023-12-22T20:10:56;7.63;;;4.20;;
7931;SDS011;4011;49.424;10.894;2023-12-22T20:16:18;8.25;;;4.32;;
7931;SDS011;4011;49.424;10.894;2023-12-22T20:21:40;7.80;;;3.80;;
7931;SDS011;4011;49.424;10.894;2023-12-22T20:27:03;10.45;;;4.50;;
7931;SDS011;4011;49.424;10.894;2023-12-22T20:32:25;9.15;;;4.22;;
7931;SDS011;4011;49.424;10.894;2023-12-22T20:37:46;10.25;;;4.63;;
7931;SDS011;4011;49.424;10.894;2023-12-22T20:43:10;12.30;;;6.55;;
7931;SDS011;4011;49.424;10.894;2023-12-22T20:48:31;11.77;;;6.75;;
7931;SDS011;4011;49.424;10.894;2023-12-22T20:53:52;12.18;;;7.07;;
7931;SDS011;4011;49.424;10.894;2023-12-22T20:59:15;11.93;;;6.35;;
7931;SDS011;4011;49.424;10.894;2023-12-22T21:04:36;10.02;;;5.60;;
7931;SDS011;4011;49.424;10.894;2023-12-22T21:09:58;6.97;;;3.78;;
7931;SDS011;4011;49.424;10.894;2023-12-22T21:15:22;5.68;;;3.20;;
7931;SDS011;4011;49.424;10.894;2023-12-22T21:20:43;24.27;;;7.35;;
7931;SDS011;4011;49.424;10.894;2023-12-22T21:26:05;18.08;;;5.45;;
7931;SDS011;4011;49.424;10.894;2023-12-22T21:31:28;14.80;;;4.90;;
7931;SDS011;4011;49.424;10.894;2023-12-22T21:36:49;8.45;;;3.60;;
7931;SDS011;4011;49.424;10.894;2023-12-22T21:42:17;8.55;;;3.10;;
7931;SDS011;4011;49.424;10.894;2023-12-22T21:47:40;7.07;;;2.58;;
7931;SDS011;4011;49.424;10.894;2023-12-22T21:53:01;5.57;;;2.17;;
7931;SDS011;4011;49.424;10.894;2023-12-22T21:58:23;7.07;;;2.40;;
7931;SDS011;4011;49.424;10.894;2023-12-22T22:03:46;5.82;;;2.03;;
7931;SDS011;4011;49.424;10.894;2023-12-22T22:09:08;5.30;;;2.20;;
7931;SDS011;4011;49.424;10.894;2023-12-22T22:14:30;4.82;;;1.80;;
7931;SDS011;4011;49.424;10.894;2023-12-22T22:19:53;3.33;;;1.55;;
7931;SDS011;4011;49.424;10.894;2023-12-22T22:25:15;3.15;;;1.50;;
7931;SDS011;4011;49.424;10.894;2023-12-22T22:30:36;3.22;;;1.50;;
7931;SDS011;4011;49.424;10.894;2023-12-22T22:35:59;2.33;;;1.30;;
7931;SDS011;4011;49.424;10.894;2023-12-22T22:41:20;2.42;;;1.42;;
7931;SDS011;4011;49.424;10.894;2023-12-22T22:46:44;3.80;;;1.25;;
7931;SDS011;4011;49.424;10.894;2023-12-22T22:52:07;3.72;;;1.50;;
7931;SDS011;4011;49.424;10.894;2023-12-22T22:57:28;2.17;;;1.40;;
7931;SDS011;4011;49.424;10.894;2023-12-22T23:02:50;2.78;;;1.45;;
7931;SDS011;4011;49.424;10.894;2023-12-22T23:08:13;2.80;;;1.42;;
7931;SDS011;4011;49.424;10.894;2023-12-22T23:13:34;2.97;;;1.38;;
7931;SDS011;4011;49.424;10.894;2023-12-22T23:18:57;2.15;;;1.00;;
7931;SDS011;4011;49.424;10.894;2023-12-22T23:24:19;2.30;;;1.20;;
7931;SDS011;4011;49.424;10.894;2023-12-22T23:29:41;2.55;;;1.20;;
7931;SDS011;4011;49.424;10.894;2023-12-22T23:35:03;2.67;;;1.23;;
7931;SDS011;4011;49.424;10.894;2023-12-22T23:40:28;1.63;;;1.10;;
7931;SDS011;4011;49.424;10.894;2023-12-22T23:45:50;3.00;;;1.20;;
7931;SDS011;4011;49.424;10.894;2023-12-22T23:51:11;1.90;;;1.10;;
7931;SDS011;4011;49.424;10.894;2023-12-22T23:56:34;1.42;;;1.00;;
